createdAt,value
2018-12-01T00:00:31.339Z,100.00
2018-12-01T00:03:00.096Z,100.00
2018-12-01T00:05:28.701Z,100.00
2018-12-01T00:07:57.519Z,100.00
2018-12-01T00:10:26.139Z,100.00
2018-12-01T00:12:54.631Z,100.00
2018-12-01T00:15:27.459Z,100.00
2018-12-01T00:17:56.648Z,100.00
2018-12-01T00:20:27.193Z,100.00
2018-12-01T00:22:56.462Z,100.00
2018-12-01T00:25:25.585Z,100.00
2018-12-01T00:27:54.045Z,100.00
2018-12-01T00:30:24.070Z,100.00
2018-12-01T00:32:53.075Z,100.00
2018-12-01T00:35:21.558Z,100.00
2018-12-01T00:37:50.164Z,100.00
2018-12-01T00:40:19.512Z,100.00
2018-12-01T00:42:48.094Z,100.00
2018-12-01T00:45:17.708Z,100.00
2018-12-01T00:47:47.949Z,100.00
2018-12-01T00:50:22.256Z,100.00
2018-12-01T00:52:51.487Z,100.00
2018-12-01T00:55:20.602Z,100.00
2018-12-01T00:57:49.038Z,100.00
2018-12-01T01:00:20.998Z,100.00
2018-12-01T01:02:52.714Z,100.00
2018-12-01T01:05:22.340Z,100.00
2018-12-01T01:07:50.874Z,100.00
2018-12-01T01:10:20.102Z,100.00
2018-12-01T01:12:48.771Z,100.00
2018-12-01T01:15:17.239Z,100.00
2018-12-01T01:17:45.782Z,100.00
2018-12-01T01:20:17.140Z,100.00
2018-12-01T01:22:46.526Z,100.00
2018-12-01T01:25:16.130Z,100.00
2018-12-01T01:27:45.164Z,100.00
2018-12-01T01:30:21.091Z,100.00
2018-12-01T01:32:50.411Z,100.00
2018-12-01T01:35:18.991Z,100.00
2018-12-01T01:37:47.622Z,100.00
2018-12-01T01:40:17.902Z,100.00
2018-12-01T01:42:46.464Z,100.00
2018-12-01T01:45:17.759Z,100.00
2018-12-01T01:47:46.421Z,100.00
2018-12-01T01:50:17.196Z,100.00
2018-12-01T01:52:45.741Z,100.00
2018-12-01T01:55:14.870Z,100.00
2018-12-01T01:57:43.391Z,100.00
2018-12-01T02:00:17.974Z,100.00
2018-12-01T02:02:49.541Z,100.00
2018-12-01T02:05:19.168Z,100.00
2018-12-01T02:07:47.782Z,100.00
2018-12-01T02:10:17.181Z,100.00
2018-12-01T02:12:46.222Z,100.00
2018-12-01T02:15:14.936Z,100.00
2018-12-01T02:17:43.484Z,100.00
2018-12-01T02:20:16.011Z,100.00
2018-12-01T02:22:44.707Z,100.00
2018-12-01T02:25:14.969Z,100.00
2018-12-01T02:27:44.436Z,100.00
2018-12-01T02:30:16.592Z,100.00
2018-12-01T02:32:45.084Z,100.00
2018-12-01T02:35:15.602Z,100.00
2018-12-01T02:37:44.132Z,100.00
2018-12-01T02:40:13.512Z,100.00
2018-12-01T02:42:43.136Z,100.00
2018-12-01T02:45:22.937Z,100.00
2018-12-01T02:47:51.832Z,100.00
2018-12-01T02:50:26.241Z,100.00
2018-12-01T02:52:56.649Z,100.00
2018-12-01T02:55:25.134Z,100.00
2018-12-01T02:57:53.586Z,100.00
2018-12-01T03:00:23.006Z,100.00
2018-12-01T03:02:51.490Z,100.00
2018-12-01T03:05:19.920Z,100.00
2018-12-01T03:07:48.477Z,100.00
2018-12-01T03:10:19.532Z,100.00
2018-12-01T03:12:48.565Z,100.00
2018-12-01T03:15:19.074Z,100.00
2018-12-01T03:17:48.265Z,100.00
2018-12-01T03:20:18.309Z,100.00
2018-12-01T03:22:46.791Z,100.00
2018-12-01T03:25:18.476Z,100.00
2018-12-01T03:27:48.128Z,100.00
2018-12-01T03:30:20.192Z,100.00
2018-12-01T03:32:49.579Z,100.00
2018-12-01T03:35:18.555Z,100.00
2018-12-01T03:37:48.016Z,100.00
2018-12-01T03:40:17.127Z,100.00
2018-12-01T03:42:46.066Z,100.00
2018-12-01T03:45:16.436Z,100.00
2018-12-01T03:47:46.477Z,100.00
2018-12-01T03:50:21.497Z,100.00
2018-12-01T03:52:51.201Z,100.00
2018-12-01T03:55:25.063Z,100.00
2018-12-01T03:57:53.448Z,100.00
2018-12-01T04:00:37.185Z,100.00
2018-12-01T04:03:06.909Z,100.00
2018-12-01T04:05:35.341Z,100.00
2018-12-01T04:08:03.688Z,100.00
2018-12-01T04:10:32.170Z,100.00
2018-12-01T04:13:00.753Z,100.00
2018-12-01T04:15:29.402Z,100.00
2018-12-01T04:17:57.864Z,100.00
2018-12-01T04:20:26.338Z,100.00
2018-12-01T04:22:54.720Z,100.00
2018-12-01T04:25:23.204Z,100.00
2018-12-01T04:27:51.738Z,100.00
2018-12-01T04:30:22.302Z,100.00
2018-12-01T04:32:51.513Z,100.00
2018-12-01T04:35:21.764Z,100.00
2018-12-01T04:37:53.032Z,100.00
2018-12-01T04:40:21.616Z,100.00
2018-12-01T04:42:50.165Z,100.00
2018-12-01T04:45:18.867Z,100.00
2018-12-01T04:47:47.339Z,100.00
2018-12-01T04:50:16.725Z,100.00
2018-12-01T04:52:45.963Z,100.00
2018-12-01T04:55:15.646Z,100.00
2018-12-01T04:57:44.700Z,100.00
2018-12-01T05:00:17.105Z,100.00
2018-12-01T05:02:45.554Z,100.00
2018-12-01T05:05:16.101Z,100.00
2018-12-01T05:07:44.495Z,100.00
2018-12-01T05:10:15.015Z,100.00
2018-12-01T05:12:43.921Z,100.00
2018-12-01T05:15:16.356Z,100.00
2018-12-01T05:17:45.349Z,100.00
2018-12-01T05:20:18.722Z,100.00
2018-12-01T05:22:47.237Z,100.00
2018-12-01T05:25:16.613Z,100.00
2018-12-01T05:27:45.027Z,100.00
2018-12-01T05:30:13.395Z,100.00
2018-12-01T05:32:41.773Z,100.00
2018-12-01T05:35:11.914Z,100.00
2018-12-01T05:37:40.361Z,100.00
2018-12-01T05:40:10.372Z,100.00
2018-12-01T05:42:38.937Z,100.00
2018-12-01T05:45:10.619Z,100.00
2018-12-01T05:47:39.010Z,100.00
2018-12-01T05:50:08.507Z,100.00
2018-12-01T05:52:37.050Z,100.00
2018-12-01T05:55:07.450Z,100.00
2018-12-01T05:57:42.577Z,100.00
2018-12-01T06:00:13.762Z,100.00
2018-12-01T06:02:48.859Z,100.00
2018-12-01T06:05:17.389Z,100.00
2018-12-01T06:07:49.878Z,100.00
2018-12-01T06:10:22.234Z,100.00
2018-12-01T06:13:07.338Z,100.00
2018-12-01T06:15:35.880Z,100.00
2018-12-01T06:18:07.265Z,100.00
2018-12-01T06:20:35.735Z,100.00
2018-12-01T06:23:04.143Z,100.00
2018-12-01T06:25:33.515Z,100.00
2018-12-01T06:28:02.241Z,100.00
2018-12-01T06:30:30.798Z,100.00
2018-12-01T06:33:00.865Z,100.00
2018-12-01T06:35:32.104Z,100.00
2018-12-01T06:38:00.584Z,100.00
2018-12-01T06:40:29.201Z,100.00
2018-12-01T06:42:57.688Z,100.00
2018-12-01T06:45:31.288Z,100.00
2018-12-01T06:48:02.488Z,100.00
2018-12-01T06:50:31.125Z,100.00
2018-12-01T06:53:00.328Z,100.00
2018-12-01T06:55:28.935Z,100.00
2018-12-01T06:57:57.417Z,100.00
2018-12-01T07:00:27.837Z,100.00
2018-12-01T07:02:57.090Z,100.00
2018-12-01T07:05:26.115Z,100.00
2018-12-01T07:07:54.943Z,100.00
2018-12-01T07:10:24.847Z,100.00
2018-12-01T07:12:55.006Z,100.00
2018-12-01T07:15:25.299Z,100.00
2018-12-01T07:17:53.727Z,100.00
2018-12-01T07:20:22.246Z,100.00
2018-12-01T07:22:51.772Z,100.00
2018-12-01T07:25:20.801Z,100.00
2018-12-01T07:27:49.284Z,100.00
2018-12-01T07:30:17.748Z,100.00
2018-12-01T07:32:47.030Z,100.00
2018-12-01T07:35:15.467Z,100.00
2018-12-01T07:37:43.907Z,100.00
2018-12-01T07:40:21.772Z,100.00
2018-12-01T07:42:50.301Z,100.00
2018-12-01T07:45:19.312Z,100.00
2018-12-01T07:47:47.894Z,100.00
2018-12-01T07:50:17.924Z,100.00
2018-12-01T07:52:49.076Z,100.00
2018-12-01T07:55:17.974Z,100.00
2018-12-01T07:57:46.980Z,100.00
2018-12-01T08:00:17.010Z,100.00
2018-12-01T08:02:49.027Z,100.00
2018-12-01T08:05:17.484Z,100.00
2018-12-01T08:07:52.458Z,100.00
2018-12-01T08:10:27.263Z,100.00
2018-12-01T08:12:55.830Z,100.00
2018-12-01T08:15:25.234Z,100.00
2018-12-01T08:17:53.597Z,100.00
2018-12-01T08:20:22.009Z,100.00
2018-12-01T08:22:51.085Z,100.00
2018-12-01T08:25:20.484Z,100.00
2018-12-01T08:27:53.321Z,100.00
2018-12-01T08:30:26.973Z,100.00
2018-12-01T08:32:55.351Z,100.00
2018-12-01T08:35:24.391Z,100.00
2018-12-01T08:37:53.360Z,100.00
2018-12-01T08:40:23.315Z,100.00
2018-12-01T08:42:52.695Z,99.61
2018-12-01T08:45:21.132Z,99.04
2018-12-01T08:47:49.953Z,99.40
2018-12-01T08:50:19.769Z,100.00
2018-12-01T08:52:48.290Z,99.32
2018-12-01T08:55:18.783Z,99.28
2018-12-01T08:57:47.365Z,100.00
2018-12-01T09:00:18.142Z,100.00
2018-12-01T09:02:48.116Z,100.00
2018-12-01T09:05:16.578Z,100.00
2018-12-01T09:07:45.696Z,100.00
2018-12-01T09:10:14.132Z,100.00
2018-12-01T09:12:42.550Z,100.00
2018-12-01T09:15:13.109Z,100.00
2018-12-01T09:17:41.766Z,100.00
2018-12-01T09:20:11.604Z,100.00
2018-12-01T09:22:41.505Z,100.00
2018-12-01T09:25:12.227Z,100.00
2018-12-01T09:27:41.255Z,100.00
2018-12-01T09:30:19.652Z,100.00
2018-12-01T09:32:48.247Z,98.67
2018-12-01T09:35:16.674Z,99.00
2018-12-01T09:37:45.114Z,96.79
2018-12-01T09:40:15.795Z,95.60
2018-12-01T09:42:44.438Z,93.22
2018-12-01T09:45:14.166Z,95.13
2018-12-01T09:47:44.664Z,94.82
2018-12-01T09:50:15.488Z,95.36
2018-12-01T09:52:45.411Z,96.43
2018-12-01T09:55:15.909Z,96.88
2018-12-01T09:57:45.537Z,97.22
2018-12-01T10:00:18.055Z,96.25
2018-12-01T10:02:47.228Z,95.58
2018-12-01T10:05:17.691Z,95.72
2018-12-01T10:07:46.476Z,94.67
2018-12-01T10:10:16.143Z,95.96
2018-12-01T10:12:45.177Z,94.76
2018-12-01T10:15:19.840Z,93.13
2018-12-01T10:17:48.346Z,93.43
2018-12-01T10:20:18.244Z,95.00
2018-12-01T10:22:46.696Z,94.75
2018-12-01T10:25:16.588Z,93.22
2018-12-01T10:27:45.752Z,92.86
2018-12-01T10:30:17.718Z,91.96
2018-12-01T10:32:46.325Z,93.00
2018-12-01T10:35:19.759Z,93.06
2018-12-01T10:37:51.470Z,92.45
2018-12-01T10:40:19.989Z,91.45
2018-12-01T10:42:48.448Z,91.05
2018-12-01T10:45:18.042Z,92.08
2018-12-01T10:47:46.905Z,90.84
2018-12-01T10:50:16.324Z,91.38
2018-12-01T10:52:45.297Z,91.05
2018-12-01T10:55:24.237Z,90.71
2018-12-01T10:57:53.856Z,89.06
2018-12-01T11:00:27.542Z,90.10
2018-12-01T11:03:01.235Z,90.35
2018-12-01T11:05:29.855Z,90.64
2018-12-01T11:07:58.281Z,90.51
2018-12-01T11:10:26.727Z,90.93
2018-12-01T11:12:56.604Z,91.25
2018-12-01T11:15:25.387Z,91.47
2018-12-01T11:17:53.829Z,91.03
2018-12-01T11:20:22.309Z,91.66
2018-12-01T11:22:51.796Z,90.92
2018-12-01T11:25:20.471Z,90.86
2018-12-01T11:27:49.015Z,91.74
2018-12-01T11:30:19.282Z,90.48
2018-12-01T11:32:48.159Z,90.66
2018-12-01T11:35:16.698Z,90.21
2018-12-01T11:37:45.620Z,89.51
2018-12-01T11:40:16.340Z,89.13
2018-12-01T11:42:45.023Z,89.92
2018-12-01T11:45:14.690Z,89.52
2018-12-01T11:47:43.212Z,89.64
2018-12-01T11:50:16.468Z,89.64
2018-12-01T11:52:45.635Z,89.38
2018-12-01T11:55:15.443Z,90.33
2018-12-01T11:57:43.979Z,91.52
2018-12-01T12:00:13.756Z,91.19
2018-12-01T12:02:42.198Z,90.75
2018-12-01T12:05:11.752Z,90.54
2018-12-01T12:07:51.476Z,90.98
2018-12-01T12:10:20.115Z,90.57
2018-12-01T12:12:48.777Z,89.88
2018-12-01T12:15:17.348Z,90.41
2018-12-01T12:17:53.706Z,90.18
2018-12-01T12:20:22.282Z,89.79
2018-12-01T12:22:50.892Z,88.13
2018-12-01T12:25:19.269Z,88.12
2018-12-01T12:27:47.749Z,89.38
2018-12-01T12:30:17.456Z,87.98
2018-12-01T12:32:46.299Z,88.08
2018-12-01T12:35:16.658Z,89.27
2018-12-01T12:37:45.101Z,88.36
2018-12-01T12:40:15.859Z,87.12
2018-12-01T12:42:44.245Z,88.79
2018-12-01T12:45:13.548Z,87.91
2018-12-01T12:47:42.272Z,88.04
2018-12-01T12:50:11.947Z,87.79
2018-12-01T12:52:40.396Z,88.22
2018-12-01T12:55:12.293Z,85.95
2018-12-01T12:57:40.717Z,86.88
2018-12-01T13:00:13.388Z,86.91
2018-12-01T13:02:42.697Z,87.69
2018-12-01T13:05:17.342Z,87.11
2018-12-01T13:07:45.880Z,87.27
2018-12-01T13:10:17.325Z,87.78
2018-12-01T13:12:46.085Z,88.96
2018-12-01T13:15:15.467Z,87.37
2018-12-01T13:17:43.905Z,88.32
2018-12-01T13:20:13.859Z,86.96
2018-12-01T13:22:42.351Z,87.82
2018-12-01T13:25:12.993Z,87.61
2018-12-01T13:27:47.187Z,87.22
2018-12-01T13:30:17.920Z,87.84
2018-12-01T13:32:46.417Z,88.43
2018-12-01T13:35:14.913Z,88.14
2018-12-01T13:37:43.381Z,88.24
2018-12-01T13:40:13.972Z,88.17
2018-12-01T13:42:43.081Z,87.49
2018-12-01T13:45:17.177Z,89.07
2018-12-01T13:47:46.454Z,87.86
2018-12-01T13:50:16.665Z,90.05
2018-12-01T13:52:49.254Z,88.74
2018-12-01T13:55:17.697Z,90.27
2018-12-01T13:57:47.587Z,90.23
2018-12-01T14:00:17.335Z,90.17
2018-12-01T14:02:45.816Z,90.05
2018-12-01T14:05:14.390Z,89.83
2018-12-01T14:07:42.849Z,89.58
2018-12-01T14:10:15.077Z,90.26
2018-12-01T14:12:44.280Z,90.26
2018-12-01T14:15:17.910Z,90.51
2018-12-01T14:17:46.621Z,90.02
2018-12-01T14:20:15.792Z,90.20
2018-12-01T14:22:45.119Z,90.36
2018-12-01T14:25:14.448Z,90.09
2018-12-01T14:27:44.445Z,90.40
2018-12-01T14:30:14.693Z,90.99
2018-12-01T14:32:43.143Z,91.19
2018-12-01T14:35:14.084Z,91.70
2018-12-01T14:37:42.997Z,92.29
2018-12-01T14:40:12.812Z,91.51
2018-12-01T14:42:41.614Z,92.20
2018-12-01T14:45:11.590Z,92.55
2018-12-01T14:47:40.121Z,92.54
2018-12-01T14:50:09.973Z,93.55
2018-12-01T14:52:38.507Z,93.21
2018-12-01T14:55:09.533Z,93.72
2018-12-01T14:57:38.068Z,93.05
2018-12-01T15:00:24.737Z,92.31
2018-12-01T15:02:54.368Z,93.76
2018-12-01T15:05:23.461Z,92.65
2018-12-01T15:07:51.941Z,93.25
2018-12-01T15:10:24.837Z,92.78
2018-12-01T15:12:53.409Z,94.07
2018-12-01T15:15:23.158Z,94.38
2018-12-01T15:17:51.533Z,94.15
2018-12-01T15:20:20.877Z,94.63
2018-12-01T15:22:50.461Z,95.32
2018-12-01T15:25:22.129Z,94.85
2018-12-01T15:27:50.706Z,95.40
2018-12-01T15:30:23.061Z,95.25
2018-12-01T15:32:55.162Z,95.83
2018-12-01T15:35:25.264Z,96.01
2018-12-01T15:37:58.383Z,96.24
2018-12-01T15:40:30.419Z,96.17
2018-12-01T15:43:02.710Z,95.56
2018-12-01T15:45:31.282Z,95.71
2018-12-01T15:48:01.213Z,96.89
2018-12-01T15:50:30.222Z,96.30
2018-12-01T15:53:00.378Z,96.59
2018-12-01T15:55:31.048Z,97.01
2018-12-01T15:58:00.187Z,96.71
2018-12-01T16:00:28.857Z,96.87
2018-12-01T16:02:57.861Z,97.32
2018-12-01T16:05:26.256Z,97.42
2018-12-01T16:07:56.835Z,97.42
2018-12-01T16:10:25.554Z,97.26
2018-12-01T16:12:57.486Z,97.81
2018-12-01T16:15:31.406Z,98.06
2018-12-01T16:17:59.927Z,97.91
2018-12-01T16:20:29.279Z,98.63
2018-12-01T16:22:57.724Z,98.43
2018-12-01T16:25:26.458Z,98.36
2018-12-01T16:27:54.902Z,98.83
2018-12-01T16:30:31.442Z,98.55
2018-12-01T16:33:01.436Z,98.64
2018-12-01T16:35:29.889Z,99.24
2018-12-01T16:37:58.386Z,98.82
2018-12-01T16:40:35.615Z,98.80
2018-12-01T16:43:06.236Z,97.92
2018-12-01T16:45:34.735Z,98.05
2018-12-01T16:48:03.201Z,98.31
2018-12-01T16:50:32.137Z,97.67
2018-12-01T16:53:00.643Z,97.28
2018-12-01T16:55:29.102Z,97.26
2018-12-01T16:57:57.720Z,97.89
2018-12-01T17:00:26.980Z,97.17
2018-12-01T17:02:56.751Z,97.78
2018-12-01T17:05:26.919Z,96.32
2018-12-01T17:07:55.432Z,96.92
2018-12-01T17:10:24.071Z,95.78
2018-12-01T17:12:53.849Z,95.63
2018-12-01T17:15:22.759Z,95.65
2018-12-01T17:17:51.292Z,95.31
2018-12-01T17:20:20.158Z,95.17
2018-12-01T17:22:51.973Z,94.01
2018-12-01T17:25:20.410Z,93.80
2018-12-01T17:27:50.066Z,94.28
2018-12-01T17:30:21.658Z,93.32
2018-12-01T17:32:50.406Z,93.72
2018-12-01T17:35:20.157Z,93.22
2018-12-01T17:37:50.920Z,93.19
2018-12-01T17:40:26.194Z,93.75
2018-12-01T17:42:56.302Z,93.90
2018-12-01T17:45:24.764Z,93.89
2018-12-01T17:47:53.867Z,93.35
2018-12-01T17:50:22.342Z,94.14
2018-12-01T17:52:54.215Z,93.05
2018-12-01T17:55:23.415Z,93.42
2018-12-01T17:57:52.476Z,93.48
2018-12-01T18:00:22.410Z,94.10
2018-12-01T18:02:52.124Z,94.62
2018-12-01T18:05:23.514Z,93.68
2018-12-01T18:07:52.068Z,94.58
2018-12-01T18:10:20.449Z,93.96
2018-12-01T18:12:49.008Z,93.60
2018-12-01T18:15:18.496Z,93.06
2018-12-01T18:17:47.013Z,94.08
2018-12-01T18:20:17.824Z,94.57
2018-12-01T18:22:48.886Z,94.00
2018-12-01T18:25:17.305Z,94.46
2018-12-01T18:27:47.218Z,94.34
2018-12-01T18:30:22.025Z,94.14
2018-12-01T18:32:50.774Z,94.06
2018-12-01T18:35:19.254Z,94.27
2018-12-01T18:37:47.706Z,94.07
2018-12-01T18:40:19.300Z,94.19
2018-12-01T18:42:47.768Z,93.90
2018-12-01T18:45:17.591Z,94.45
2018-12-01T18:47:46.088Z,93.85
2018-12-01T18:50:17.543Z,93.62
2018-12-01T18:52:51.318Z,93.45
2018-12-01T18:55:19.755Z,93.94
2018-12-01T18:57:48.223Z,92.93
2018-12-01T19:00:22.547Z,94.04
2018-12-01T19:02:50.951Z,93.95
2018-12-01T19:05:19.434Z,93.67
2018-12-01T19:07:47.885Z,93.27
2018-12-01T19:10:18.173Z,93.64
2018-12-01T19:12:48.458Z,93.88
2018-12-01T19:15:17.917Z,94.01
2018-12-01T19:17:47.792Z,94.13
2018-12-01T19:20:17.713Z,94.85
2018-12-01T19:22:47.291Z,94.06
2018-12-01T19:25:19.736Z,94.56
2018-12-01T19:27:48.691Z,93.96
2018-12-01T19:30:18.336Z,94.63
2018-12-01T19:32:49.432Z,94.77
2018-12-01T19:35:19.528Z,95.00
2018-12-01T19:37:51.212Z,94.86
2018-12-01T19:40:28.591Z,94.86
2018-12-01T19:42:54.252Z,94.08
2018-12-01T19:45:22.658Z,94.26
2018-12-01T19:47:57.977Z,94.70
2018-12-01T19:50:35.542Z,94.24
2018-12-01T19:53:04.295Z,94.21
2018-12-01T19:58:11.994Z,94.50
2018-12-01T20:00:42.557Z,94.44
2018-12-01T20:03:15.723Z,94.43
2018-12-01T20:05:44.231Z,94.42
2018-12-01T20:08:14.368Z,94.68
2018-12-01T20:10:45.000Z,94.55
2018-12-01T20:13:45.345Z,95.29
2018-12-01T20:16:35.777Z,94.50
2018-12-01T20:19:06.192Z,95.56
2018-12-01T20:21:34.770Z,95.07
2018-12-01T20:24:03.563Z,95.66
2018-12-01T20:26:33.220Z,95.60
2018-12-01T20:29:03.132Z,95.36
2018-12-01T20:31:32.386Z,95.05
2018-12-01T20:34:02.200Z,95.40
2018-12-01T20:36:37.655Z,96.17
2018-12-01T20:39:16.119Z,95.16
2018-12-01T20:41:44.991Z,95.01
2018-12-01T20:44:13.609Z,94.97
2018-12-01T20:46:43.585Z,95.19
2018-12-01T20:49:12.850Z,95.25
2018-12-01T20:51:42.118Z,95.47
2018-12-01T20:54:20.969Z,94.79
2018-12-01T20:56:49.385Z,93.79
2018-12-01T20:59:18.596Z,93.64
2018-12-01T21:01:47.034Z,94.29
2018-12-01T21:04:15.456Z,94.99
2018-12-01T21:06:43.894Z,95.29
2018-12-01T21:09:14.241Z,95.51
2018-12-01T21:11:42.841Z,94.58
2018-12-01T21:14:11.529Z,95.17
2018-12-01T21:16:41.107Z,95.64
2018-12-01T21:19:10.481Z,96.12
2018-12-01T21:21:38.968Z,95.09
2018-12-01T21:24:08.387Z,96.28
2018-12-01T21:26:37.643Z,96.17
2018-12-01T21:29:06.968Z,96.00
2018-12-01T21:31:36.211Z,95.37
2018-12-01T21:34:05.310Z,95.47
2018-12-01T21:36:33.908Z,95.30
2018-12-01T21:39:02.696Z,95.40
2018-12-01T21:41:31.256Z,96.27
2018-12-01T21:43:59.785Z,95.47
2018-12-01T21:46:28.322Z,94.78
2018-12-01T21:48:56.940Z,94.37
2018-12-01T21:51:25.412Z,93.02
2018-12-01T21:53:53.971Z,93.79
2018-12-01T21:56:22.460Z,92.46
2018-12-01T21:58:51.291Z,92.67
2018-12-01T22:01:19.936Z,92.42
2018-12-01T22:03:48.711Z,92.03
2018-12-01T22:06:17.142Z,91.06
2018-12-01T22:08:45.722Z,90.51
2018-12-01T22:11:14.084Z,91.19
2018-12-01T22:13:42.530Z,90.92
2018-12-01T22:16:12.103Z,90.88
2018-12-01T22:18:42.339Z,90.82
2018-12-01T22:21:10.768Z,90.58
2018-12-01T22:23:39.260Z,90.71
2018-12-01T22:26:08.372Z,91.07
2018-12-01T22:28:36.770Z,91.29
2018-12-01T22:31:05.781Z,89.23
2018-12-01T22:33:34.663Z,90.01
2018-12-01T22:36:03.245Z,91.54
2018-12-01T22:38:31.735Z,93.26
2018-12-01T22:41:00.209Z,93.64
2018-12-01T22:43:28.690Z,93.81
2018-12-01T22:45:57.208Z,93.86
2018-12-01T22:48:26.517Z,93.88
2018-12-01T22:50:55.159Z,94.18
2018-12-01T22:53:23.597Z,92.34
2018-12-01T22:55:52.039Z,92.04
2018-12-01T22:58:21.546Z,92.45
2018-12-01T23:00:53.483Z,90.56
2018-12-01T23:03:22.359Z,90.91
2018-12-01T23:05:50.951Z,90.07
2018-12-01T23:08:21.200Z,90.66
2018-12-01T23:10:49.777Z,90.51
2018-12-01T23:13:18.307Z,90.71
2018-12-01T23:15:46.751Z,90.29
2018-12-01T23:18:16.863Z,90.64
2018-12-01T23:20:46.715Z,90.33
2018-12-01T23:23:15.187Z,91.52
2018-12-01T23:25:43.778Z,89.71
2018-12-01T23:28:12.301Z,90.49
2018-12-01T23:30:42.519Z,91.20
2018-12-01T23:33:13.305Z,90.48
2018-12-01T23:35:41.825Z,90.81
2018-12-01T23:38:10.350Z,90.38
2018-12-01T23:40:39.819Z,89.61
2018-12-01T23:43:08.441Z,89.15
2018-12-01T23:45:38.841Z,90.12
2018-12-01T23:48:07.894Z,91.06
2018-12-01T23:50:36.802Z,89.76
2018-12-01T23:53:09.316Z,90.29
2018-12-01T23:55:38.819Z,90.62
2018-12-01T23:58:07.392Z,90.19
